Kirksville Regional Airport Kirksville US
ICAO: KIRK
IATA: IRK
Category: Medium
Scheduled Services: Yes

Elevation: 966 ft
TransAlt. 18000 ft.

Airport Communications:
ASOS:121.125
KANSAS CITY CNTR:132.6
COLUMBIA RDO:122.2
CTAF/UNICOM:122.8

KIRK Zoom In..

If you have problems with the map follow the link
https://www.worldairports.se/pages/airport.php?
ICAO=KIRK

Runways:

(A) RW 09 length 1370 ft width 100 ft
---- / hdg 88

(B) RW 18 length 6005 ft width 100 ft
---- / hdg 177

(C) RW 27 length 1370 ft width 100 ft
---- / hdg 268

(D) RW 36 length 6005 ft width 100 ft
ILS 111.50 / hdg 357

Location; KIRK
Day. 22 / Time. 16.55 Zulu
* Altimeter: 30.31
* Temperature: 02° c. 35.6°f.
* Wind from: 100° Speed 10 kn.
Dewpoint: -04° c.
Visibility: 8 Statute Miles.
Clouds: Scattered 1000 ft.

KIRK 221655Z AUTO 10010KT 8SM SCT100 02/M04 A3031 RMK AO2 SLP277 T00221039


Wind From 100°
Speed 10 kn.

 
 
jpsmedia.com for Web Design worldairports.se 2019   terms of use